createdAt,value
2023-04-22T00:00:14.295Z,98.33
2023-04-22T00:02:41.532Z,99.07
2023-04-22T00:05:12.877Z,100.00
2023-04-22T00:07:42.454Z,100.00
2023-04-22T00:10:12.099Z,100.00
2023-04-22T00:12:39.509Z,100.00
2023-04-22T00:15:07.294Z,100.00
2023-04-22T00:17:34.537Z,100.00
2023-04-22T00:20:01.540Z,100.00
2023-04-22T00:22:28.456Z,100.00
2023-04-22T00:24:55.581Z,100.00
2023-04-22T00:27:22.611Z,100.00
2023-04-22T00:29:49.379Z,100.00
2023-04-22T00:32:16.124Z,100.00
2023-04-22T00:34:42.837Z,100.00
2023-04-22T00:37:09.720Z,100.00
2023-04-22T00:39:39.181Z,100.00
2023-04-22T00:42:07.269Z,100.00
2023-04-22T00:44:35.458Z,100.00
2023-04-22T00:47:02.297Z,100.00
2023-04-22T00:49:29.122Z,100.00
2023-04-22T00:51:56.032Z,100.00
2023-04-22T00:54:22.809Z,100.00
2023-04-22T00:56:49.596Z,100.00
2023-04-22T00:59:16.556Z,100.00
2023-04-22T01:01:43.542Z,100.00
2023-04-22T01:04:12.150Z,100.00
2023-04-22T01:06:40.580Z,100.00
2023-04-22T01:09:07.484Z,100.00
2023-04-22T01:11:35.602Z,100.00
2023-04-22T01:14:02.704Z,100.00
2023-04-22T01:16:30.759Z,100.00
2023-04-22T01:18:57.525Z,100.00
2023-04-22T01:21:24.717Z,100.00
2023-04-22T01:23:51.621Z,100.00
2023-04-22T01:26:18.354Z,100.00
2023-04-22T01:28:45.198Z,100.00
2023-04-22T01:31:12.113Z,100.00
2023-04-22T01:33:38.990Z,100.00
2023-04-22T01:36:06.038Z,100.00
2023-04-22T01:38:33.863Z,100.00
2023-04-22T01:41:02.033Z,100.00
2023-04-22T01:43:30.313Z,100.00
2023-04-22T01:45:57.305Z,100.00
2023-04-22T01:48:24.118Z,100.00
2023-04-22T01:50:50.905Z,100.00
2023-04-22T01:53:17.629Z,100.00
2023-04-22T01:55:44.800Z,100.00
2023-04-22T01:58:13.158Z,100.00
2023-04-22T02:00:40.883Z,100.00
2023-04-22T02:03:07.799Z,100.00
2023-04-22T02:05:38.984Z,100.00
2023-04-22T02:08:06.035Z,100.00
2023-04-22T02:10:32.772Z,100.00
2023-04-22T02:13:00.169Z,100.00
2023-04-22T02:15:26.897Z,100.00
2023-04-22T02:17:54.258Z,100.00
2023-04-22T02:20:21.066Z,100.00
2023-04-22T02:22:47.927Z,100.00
2023-04-22T02:25:14.697Z,100.00
2023-04-22T02:27:42.422Z,100.00
2023-04-22T02:30:09.587Z,100.00
2023-04-22T02:32:38.347Z,100.00
2023-04-22T02:35:05.880Z,100.00
2023-04-22T02:37:33.432Z,100.00
2023-04-22T02:40:00.213Z,100.00
2023-04-22T02:42:27.164Z,100.00
2023-04-22T02:44:55.267Z,100.00
2023-04-22T02:47:23.428Z,100.00
2023-04-22T02:49:50.232Z,100.00
2023-04-22T02:52:17.533Z,100.00
2023-04-22T02:54:44.283Z,100.00
2023-04-22T02:57:11.052Z,100.00
2023-04-22T02:59:38.108Z,100.00
2023-04-22T03:02:06.842Z,100.00
2023-04-22T03:05:03.546Z,100.00
2023-04-22T03:07:30.660Z,100.00
2023-04-22T03:09:57.705Z,100.00
2023-04-22T03:12:24.567Z,100.00
2023-04-22T03:14:52.186Z,100.00
2023-04-22T03:17:20.053Z,100.00
2023-04-22T03:19:47.462Z,100.00
2023-04-22T03:22:14.357Z,100.00
2023-04-22T03:24:41.198Z,100.00
2023-04-22T03:27:11.834Z,100.00
2023-04-22T03:29:39.729Z,100.00
2023-04-22T03:32:06.892Z,100.00
2023-04-22T03:34:37.066Z,100.00
2023-04-22T03:37:05.449Z,100.00
2023-04-22T03:39:52.448Z,100.00
2023-04-22T03:42:19.328Z,100.00
2023-04-22T03:44:46.170Z,100.00
2023-04-22T03:47:14.156Z,100.00
2023-04-22T03:49:45.872Z,100.00
2023-04-22T03:52:12.965Z,100.00
2023-04-22T03:54:43.538Z,100.00
2023-04-22T03:57:10.433Z,100.00
2023-04-22T03:59:38.815Z,100.00
2023-04-22T04:02:07.128Z,100.00
2023-04-22T04:04:34.458Z,100.00
2023-04-22T04:07:01.641Z,100.00
2023-04-22T04:09:28.603Z,100.00
2023-04-22T04:11:56.254Z,100.00
2023-04-22T04:14:23.073Z,100.00
2023-04-22T04:16:52.040Z,100.00
2023-04-22T04:19:30.167Z,100.00
2023-04-22T04:21:57.048Z,100.00
2023-04-22T04:24:25.319Z,100.00
2023-04-22T04:26:57.455Z,100.00
2023-04-22T04:29:29.238Z,100.00
2023-04-22T04:32:04.190Z,100.00
2023-04-22T04:34:33.880Z,100.00
2023-04-22T04:37:02.256Z,98.64
2023-04-22T04:39:35.818Z,93.20
2023-04-22T04:42:03.431Z,91.11
2023-04-22T04:44:32.051Z,92.12
2023-04-22T04:46:59.458Z,86.05
2023-04-22T04:49:30.070Z,85.93
2023-04-22T04:51:58.335Z,81.16
2023-04-22T04:54:26.047Z,78.46
2023-04-22T04:56:52.806Z,76.57
2023-04-22T04:59:19.656Z,75.49
2023-04-22T05:01:47.822Z,75.66
2023-04-22T05:04:14.989Z,78.93
2023-04-22T05:06:43.036Z,80.39
2023-04-22T05:09:10.027Z,81.56
2023-04-22T05:11:36.814Z,78.62
2023-04-22T05:14:09.187Z,72.19
2023-04-22T05:16:39.166Z,69.49
2023-04-22T05:19:07.949Z,64.37
2023-04-22T05:21:35.484Z,64.34
2023-04-22T05:24:02.266Z,64.54
2023-04-22T05:26:29.278Z,63.25
2023-04-22T05:28:56.292Z,65.06
2023-04-22T05:31:23.170Z,65.21
2023-04-22T05:33:50.406Z,65.19
2023-04-22T05:36:17.412Z,66.06
2023-04-22T05:38:45.555Z,64.68
2023-04-22T05:41:12.390Z,63.47
2023-04-22T05:43:39.298Z,58.31
2023-04-22T05:46:09.505Z,56.49
2023-04-22T05:48:37.981Z,55.24
2023-04-22T05:51:07.891Z,57.01
2023-04-22T05:53:35.544Z,56.48
2023-04-22T05:56:02.627Z,57.45
2023-04-22T05:58:30.172Z,57.19
2023-04-22T06:01:01.560Z,53.59
2023-04-22T06:04:05.681Z,51.68
2023-04-22T06:06:33.547Z,49.86
2023-04-22T06:09:00.359Z,47.79
2023-04-22T06:11:27.817Z,48.08
2023-04-22T06:13:54.713Z,47.63
2023-04-22T06:16:21.817Z,46.54
2023-04-22T06:18:48.593Z,46.47
2023-04-22T06:21:15.482Z,45.96
2023-04-22T06:23:42.316Z,45.74
2023-04-22T06:26:09.114Z,46.44
2023-04-22T06:28:36.494Z,46.09
2023-04-22T06:31:07.095Z,46.11
2023-04-22T06:33:33.928Z,46.36
2023-04-22T06:36:04.428Z,45.14
2023-04-22T06:38:31.379Z,45.42
2023-04-22T06:41:27.396Z,44.07
2023-04-22T06:43:58.025Z,42.67
2023-04-22T06:46:50.152Z,42.03
2023-04-22T06:49:37.990Z,42.46
2023-04-22T06:52:19.514Z,42.65
2023-04-22T06:54:46.720Z,42.63
2023-04-22T06:57:13.752Z,42.51
2023-04-22T06:59:40.874Z,43.42
2023-04-22T07:02:08.133Z,43.10
2023-04-22T07:04:36.964Z,43.43
2023-04-22T07:07:04.677Z,42.41
2023-04-22T07:09:33.242Z,43.49
2023-04-22T07:12:00.677Z,43.70
2023-04-22T07:14:31.750Z,44.52
2023-04-22T07:16:59.396Z,45.46
2023-04-22T07:19:26.448Z,46.01
2023-04-22T07:21:53.583Z,45.78
2023-04-22T07:24:20.374Z,44.30
2023-04-22T07:26:47.081Z,44.41
2023-04-22T07:29:13.810Z,43.76
2023-04-22T07:31:40.617Z,43.69
2023-04-22T07:34:08.621Z,41.10
2023-04-22T07:36:35.413Z,39.97
2023-04-22T07:39:02.105Z,40.28
2023-04-22T07:41:28.994Z,38.93
2023-04-22T07:43:56.003Z,39.18
2023-04-22T07:46:23.188Z,39.57
2023-04-22T07:48:50.232Z,38.18
2023-04-22T07:51:16.959Z,36.29
2023-04-22T07:53:44.157Z,36.68
2023-04-22T07:56:10.928Z,36.88
2023-04-22T07:58:37.816Z,36.73
2023-04-22T08:01:04.704Z,36.80
2023-04-22T08:03:32.202Z,36.84
2023-04-22T08:05:59.466Z,35.90
2023-04-22T08:08:26.236Z,34.94
2023-04-22T08:10:53.022Z,34.74
2023-04-22T08:13:20.052Z,34.42
2023-04-22T08:15:46.822Z,34.20
2023-04-22T08:18:13.557Z,33.92
2023-04-22T08:20:40.286Z,34.46
2023-04-22T08:23:07.119Z,34.88
2023-04-22T08:25:34.187Z,34.12
2023-04-22T08:28:00.994Z,33.94
2023-04-22T08:30:27.770Z,33.43
2023-04-22T08:32:54.537Z,33.54
2023-04-22T08:35:21.294Z,32.38
2023-04-22T08:37:48.073Z,31.85
2023-04-22T08:40:15.005Z,31.77
2023-04-22T08:42:42.074Z,31.32
2023-04-22T08:45:09.164Z,31.19
2023-04-22T08:47:37.895Z,31.69
2023-04-22T08:50:05.837Z,31.54
2023-04-22T08:52:33.146Z,30.80
2023-04-22T08:55:00.255Z,31.17
2023-04-22T08:57:27.145Z,29.51
2023-04-22T08:59:55.694Z,29.46
2023-04-22T09:02:23.609Z,29.70
2023-04-22T09:04:51.364Z,29.27
2023-04-22T09:07:25.233Z,29.05
2023-04-22T09:09:53.295Z,29.22
2023-04-22T09:12:20.063Z,28.89
2023-04-22T09:14:46.953Z,28.76
2023-04-22T09:17:18.008Z,26.80
2023-04-22T09:19:45.233Z,27.16
2023-04-22T09:22:14.230Z,27.59
2023-04-22T09:24:43.944Z,26.33
2023-04-22T09:27:10.735Z,25.81
2023-04-22T09:29:37.831Z,26.61
2023-04-22T09:32:11.289Z,26.84
2023-04-22T09:34:51.733Z,25.72
2023-04-22T09:37:36.054Z,27.35
2023-04-22T09:40:08.524Z,28.15
2023-04-22T09:42:35.335Z,28.02
2023-04-22T09:45:02.375Z,28.89
2023-04-22T09:47:35.548Z,29.66
2023-04-22T09:50:03.810Z,29.74
2023-04-22T09:52:31.457Z,29.52
2023-04-22T09:54:58.232Z,29.30
2023-04-22T09:57:25.029Z,29.60
2023-04-22T09:59:52.457Z,29.19
2023-04-22T10:02:19.407Z,28.62
2023-04-22T10:04:47.376Z,28.67
2023-04-22T10:07:14.729Z,29.50
2023-04-22T10:09:41.718Z,29.44
2023-04-22T10:12:09.285Z,29.88
2023-04-22T10:14:36.499Z,29.59
2023-04-22T10:17:04.352Z,29.43
2023-04-22T10:19:33.458Z,29.98
2023-04-22T10:22:02.130Z,29.75
2023-04-22T10:24:29.839Z,29.15
2023-04-22T10:26:57.589Z,27.73
2023-04-22T10:29:25.794Z,27.25
2023-04-22T10:32:03.652Z,28.42
2023-04-22T10:34:34.477Z,27.51
2023-04-22T10:37:06.257Z,28.18
2023-04-22T10:39:33.295Z,26.88
2023-04-22T10:42:05.040Z,29.17
2023-04-22T10:44:51.261Z,28.56
2023-04-22T10:47:34.733Z,27.89
2023-04-22T10:50:11.753Z,27.17
2023-04-22T10:52:39.425Z,27.42
2023-04-22T10:55:06.338Z,27.64
2023-04-22T10:57:57.763Z,28.27
2023-04-22T11:00:35.366Z,27.79
2023-04-22T11:03:05.702Z,26.67
2023-04-22T11:05:33.630Z,27.09
2023-04-22T11:08:20.089Z,27.07
2023-04-22T11:10:50.664Z,27.41
2023-04-22T11:13:18.950Z,27.83
2023-04-22T11:15:50.405Z,28.91
2023-04-22T11:18:22.752Z,28.84
2023-04-22T11:20:50.130Z,28.63
2023-04-22T11:23:26.039Z,29.02
2023-04-22T11:26:00.336Z,29.40
2023-04-22T11:28:27.572Z,29.59
2023-04-22T11:31:09.290Z,29.25
2023-04-22T11:33:37.833Z,28.82
2023-04-22T11:36:05.207Z,29.08
2023-04-22T11:38:32.737Z,29.29
2023-04-22T11:40:59.591Z,29.60
2023-04-22T11:43:30.439Z,29.71
2023-04-22T11:45:57.618Z,29.10
2023-04-22T11:48:24.616Z,27.18
2023-04-22T11:51:11.183Z,27.61
2023-04-22T11:53:39.579Z,27.18
2023-04-22T11:56:07.191Z,27.12
2023-04-22T11:58:37.141Z,27.67
2023-04-22T12:01:03.957Z,28.06
2023-04-22T12:03:33.491Z,28.43
2023-04-22T12:06:02.489Z,27.71
2023-04-22T12:08:35.004Z,27.50
2023-04-22T12:11:03.555Z,27.48
2023-04-22T12:13:32.648Z,27.59
2023-04-22T12:16:19.967Z,27.76
2023-04-22T12:18:47.010Z,27.40
2023-04-22T12:21:14.740Z,27.35
2023-04-22T12:23:42.828Z,28.70
2023-04-22T12:26:09.866Z,29.56
2023-04-22T12:28:37.105Z,29.35
2023-04-22T12:31:04.296Z,29.66
2023-04-22T12:33:31.601Z,29.86
2023-04-22T12:35:58.747Z,29.19
2023-04-22T12:38:26.323Z,28.03
2023-04-22T12:40:54.204Z,27.37
2023-04-22T12:43:21.175Z,26.49
2023-04-22T12:45:48.054Z,26.93
2023-04-22T12:48:16.751Z,26.42
2023-04-22T12:50:43.655Z,26.14
2023-04-22T12:53:10.372Z,25.56
2023-04-22T12:55:37.282Z,25.88
2023-04-22T12:58:04.758Z,25.81
2023-04-22T13:00:31.825Z,27.27
2023-04-22T13:02:58.778Z,28.23
2023-04-22T13:05:25.719Z,28.78
2023-04-22T13:10:27.532Z,29.94
2023-04-22T13:12:58.466Z,29.51
2023-04-22T13:15:31.756Z,29.34
2023-04-22T13:17:59.118Z,29.40
2023-04-22T13:20:25.928Z,30.21
2023-04-22T13:22:53.560Z,30.75
2023-04-22T13:25:20.553Z,30.85
2023-04-22T13:27:47.530Z,31.11
2023-04-22T13:30:14.493Z,29.90
2023-04-22T13:32:41.836Z,30.03
2023-04-22T13:35:09.062Z,27.21
2023-04-22T13:37:36.252Z,26.67
2023-04-22T13:40:05.591Z,26.14
2023-04-22T13:42:32.702Z,26.02
2023-04-22T13:45:01.052Z,25.64
2023-04-22T13:47:28.282Z,24.99
2023-04-22T13:49:55.055Z,25.32
2023-04-22T13:52:21.820Z,25.68
2023-04-22T13:54:48.671Z,25.91
2023-04-22T13:57:15.401Z,26.59
2023-04-22T13:59:42.404Z,26.77
2023-04-22T14:02:09.541Z,27.43
2023-04-22T14:04:36.295Z,27.55
2023-04-22T14:07:03.449Z,26.57
2023-04-22T14:09:30.988Z,26.05
2023-04-22T14:11:58.077Z,25.61
2023-04-22T14:14:25.269Z,25.03
2023-04-22T14:16:52.247Z,24.59
2023-04-22T14:19:19.379Z,25.16
2023-04-22T14:21:46.586Z,25.50
2023-04-22T14:24:13.528Z,25.44
2023-04-22T14:26:40.639Z,25.06
2023-04-22T14:29:08.238Z,24.90
2023-04-22T14:31:35.056Z,24.14
2023-04-22T14:34:01.788Z,24.41
2023-04-22T14:36:29.420Z,23.76
2023-04-22T14:38:56.244Z,23.95
2023-04-22T14:41:23.327Z,23.43
2023-04-22T14:43:50.319Z,23.34
2023-04-22T14:46:17.074Z,23.84
2023-04-22T14:48:44.219Z,24.04
2023-04-22T14:51:11.070Z,24.45
2023-04-22T14:53:37.905Z,24.22
2023-04-22T14:56:04.874Z,23.74
2023-04-22T14:58:31.991Z,24.55
2023-04-22T15:00:59.364Z,24.37
2023-04-22T15:03:26.735Z,24.67
2023-04-22T15:05:54.636Z,25.42
2023-04-22T15:08:24.595Z,25.41
2023-04-22T15:10:51.648Z,25.43
2023-04-22T15:13:21.267Z,26.12
2023-04-22T15:15:48.028Z,26.82
2023-04-22T15:18:14.838Z,27.38
2023-04-22T15:20:41.723Z,26.69
2023-04-22T15:23:08.525Z,26.55
2023-04-22T15:25:35.604Z,26.53
2023-04-22T15:28:02.840Z,27.25
2023-04-22T15:30:29.966Z,28.00
2023-04-22T15:32:56.912Z,29.42
2023-04-22T15:35:24.097Z,29.47
2023-04-22T15:37:52.138Z,29.95
2023-04-22T15:40:19.243Z,30.82
2023-04-22T15:42:46.029Z,31.24
2023-04-22T15:45:12.894Z,31.43
2023-04-22T15:47:40.519Z,31.95
2023-04-22T15:50:08.309Z,32.01
2023-04-22T15:52:36.757Z,32.14
2023-04-22T15:55:07.213Z,32.53
2023-04-22T15:57:34.505Z,33.01
2023-04-22T16:00:10.858Z,33.07
2023-04-22T16:02:42.976Z,33.13
2023-04-22T16:05:11.075Z,33.16
2023-04-22T16:07:39.628Z,33.69
2023-04-22T16:10:07.409Z,34.08
2023-04-22T16:12:34.611Z,34.49
2023-04-22T16:15:01.629Z,35.20
2023-04-22T16:17:29.253Z,35.27
2023-04-22T16:19:56.036Z,35.36
2023-04-22T16:22:22.819Z,35.27
2023-04-22T16:24:50.026Z,35.64
2023-04-22T16:27:18.568Z,36.01
2023-04-22T16:29:45.544Z,35.98
2023-04-22T16:32:12.337Z,35.87
2023-04-22T16:34:39.166Z,36.43
2023-04-22T16:37:06.338Z,36.97
2023-04-22T16:39:33.425Z,36.68
2023-04-22T16:42:01.769Z,36.99
2023-04-22T16:44:28.762Z,36.69
2023-04-22T16:46:55.555Z,36.93
2023-04-22T16:49:22.318Z,37.70
2023-04-22T16:51:49.299Z,38.47
2023-04-22T16:54:16.148Z,38.85
2023-04-22T16:56:43.142Z,39.44
2023-04-22T16:59:09.897Z,40.31
2023-04-22T17:01:36.843Z,40.95
2023-04-22T17:04:03.717Z,41.38
2023-04-22T17:06:31.954Z,42.09
2023-04-22T17:08:59.388Z,42.80
2023-04-22T17:11:26.133Z,43.44
2023-04-22T17:13:53.084Z,43.76
2023-04-22T17:16:20.320Z,44.15
2023-04-22T17:18:47.331Z,44.36
2023-04-22T17:21:15.858Z,44.47
2023-04-22T17:23:42.623Z,45.08
2023-04-22T17:26:09.372Z,45.80
2023-04-22T17:28:36.088Z,46.69
2023-04-22T17:31:03.576Z,47.36
2023-04-22T17:33:30.774Z,48.63
2023-04-22T17:35:57.546Z,49.44
2023-04-22T17:38:24.376Z,50.36
2023-04-22T17:40:51.107Z,51.10
2023-04-22T17:43:18.543Z,51.32
2023-04-22T17:45:45.382Z,50.96
2023-04-22T17:48:12.572Z,50.98
2023-04-22T17:50:39.344Z,51.04
2023-04-22T17:53:06.255Z,51.09
2023-04-22T17:55:34.640Z,51.38
2023-04-22T17:58:02.479Z,51.81
2023-04-22T18:00:29.912Z,52.09
2023-04-22T18:02:56.910Z,51.82
2023-04-22T18:05:23.991Z,52.12
2023-04-22T18:07:50.936Z,51.78
2023-04-22T18:10:17.846Z,50.94
2023-04-22T18:12:46.453Z,50.75
2023-04-22T18:15:13.180Z,51.00
2023-04-22T18:17:41.394Z,51.52
2023-04-22T18:20:17.160Z,52.14
2023-04-22T18:22:49.101Z,55.20
2023-04-22T18:25:15.808Z,57.32
2023-04-22T18:27:42.944Z,60.88
2023-04-22T18:30:10.054Z,61.95
2023-04-22T18:32:37.503Z,60.06
2023-04-22T18:35:04.765Z,59.86
2023-04-22T18:37:33.758Z,58.80
2023-04-22T18:40:00.661Z,58.09
2023-04-22T18:42:27.463Z,56.96
2023-04-22T18:44:54.252Z,57.62
2023-04-22T18:47:21.198Z,57.23
2023-04-22T18:49:47.935Z,58.19
2023-04-22T18:52:16.533Z,58.86
2023-04-22T18:54:43.416Z,59.01
2023-04-22T18:57:11.580Z,59.59
2023-04-22T18:59:39.127Z,59.08
2023-04-22T19:02:06.046Z,59.22
2023-04-22T19:04:33.297Z,59.41
2023-04-22T19:07:00.348Z,58.79
2023-04-22T19:09:27.083Z,57.89
2023-04-22T19:11:53.985Z,56.94
2023-04-22T19:14:21.512Z,57.57
2023-04-22T19:16:48.248Z,61.79
2023-04-22T19:19:15.251Z,63.34
2023-04-22T19:21:42.111Z,64.30
2023-04-22T19:24:09.473Z,68.41
2023-04-22T19:26:36.239Z,69.33
2023-04-22T19:29:02.967Z,71.24
2023-04-22T19:31:30.214Z,73.68
2023-04-22T19:33:57.391Z,73.02
2023-04-22T19:36:24.137Z,74.62
2023-04-22T19:38:51.075Z,75.25
2023-04-22T19:41:18.039Z,73.27
2023-04-22T19:43:45.470Z,73.20
2023-04-22T19:46:12.216Z,76.35
2023-04-22T19:48:39.298Z,71.17
2023-04-22T19:51:06.244Z,69.94
2023-04-22T19:53:33.133Z,69.27
2023-04-22T19:55:59.919Z,74.53
2023-04-22T19:58:27.845Z,76.29
2023-04-22T20:00:55.022Z,77.23
2023-04-22T20:03:22.181Z,77.55
2023-04-22T20:05:49.686Z,79.43
2023-04-22T20:08:19.446Z,83.21
2023-04-22T20:10:48.634Z,82.26
2023-04-22T20:13:16.535Z,80.62
2023-04-22T20:15:43.927Z,81.42
2023-04-22T20:18:10.749Z,84.90
2023-04-22T20:20:45.794Z,84.44
2023-04-22T20:23:12.593Z,83.87
2023-04-22T20:25:41.720Z,79.98
2023-04-22T20:28:10.089Z,79.29
2023-04-22T20:30:37.144Z,79.77
2023-04-22T20:33:04.451Z,80.65
2023-04-22T20:35:31.647Z,81.48
2023-04-22T20:37:58.976Z,82.00
2023-04-22T20:40:25.851Z,82.44
2023-04-22T20:43:14.489Z,83.11
2023-04-22T20:45:41.289Z,86.59
2023-04-22T20:48:08.340Z,93.77
2023-04-22T20:50:35.522Z,95.77
2023-04-22T20:53:03.113Z,97.67
2023-04-22T20:55:30.976Z,91.70
2023-04-22T20:57:58.199Z,90.65
2023-04-22T21:00:24.986Z,91.55
2023-04-22T21:02:51.918Z,91.75
2023-04-22T21:05:19.256Z,95.72
2023-04-22T21:07:46.924Z,98.61
2023-04-22T21:10:14.140Z,99.60
2023-04-22T21:12:41.072Z,98.80
2023-04-22T21:15:08.821Z,99.65
2023-04-22T21:17:35.663Z,100.00
2023-04-22T21:20:03.735Z,99.98
2023-04-22T21:22:30.854Z,100.00
2023-04-22T21:24:57.908Z,100.00
2023-04-22T21:27:25.220Z,100.00
2023-04-22T21:29:52.412Z,100.00
2023-04-22T21:32:19.880Z,100.00
2023-04-22T21:34:46.814Z,100.00
2023-04-22T21:37:13.565Z,99.12
2023-04-22T21:39:40.410Z,100.00
2023-04-22T21:42:07.380Z,100.00
2023-04-22T21:44:35.679Z,100.00
2023-04-22T21:47:02.927Z,100.00
2023-04-22T21:49:29.741Z,100.00
2023-04-22T21:51:56.563Z,100.00
2023-04-22T21:54:23.304Z,100.00
2023-04-22T21:56:50.181Z,100.00
2023-04-22T21:59:16.907Z,100.00
2023-04-22T22:01:43.708Z,100.00
2023-04-22T22:04:13.122Z,100.00
2023-04-22T22:06:46.017Z,100.00
2023-04-22T22:09:13.924Z,100.00
2023-04-22T22:11:43.684Z,100.00
2023-04-22T22:14:10.426Z,100.00
2023-04-22T22:16:37.794Z,100.00
2023-04-22T22:19:04.812Z,100.00
2023-04-22T22:21:32.331Z,100.00
2023-04-22T22:23:59.068Z,100.00
2023-04-22T22:26:25.920Z,100.00
2023-04-22T22:28:52.838Z,100.00
2023-04-22T22:31:19.608Z,100.00
2023-04-22T22:33:46.416Z,100.00
2023-04-22T22:36:13.165Z,100.00
2023-04-22T22:38:40.055Z,100.00
2023-04-22T22:41:06.794Z,100.00
2023-04-22T22:43:33.923Z,100.00
2023-04-22T22:46:00.705Z,100.00
2023-04-22T22:48:27.906Z,100.00
2023-04-22T22:50:55.905Z,100.00
2023-04-22T22:53:23.158Z,100.00
2023-04-22T22:55:50.190Z,100.00
2023-04-22T22:58:17.018Z,100.00
2023-04-22T23:00:43.767Z,100.00
2023-04-22T23:03:11.144Z,100.00
2023-04-22T23:05:38.419Z,100.00
2023-04-22T23:08:06.320Z,100.00
2023-04-22T23:10:33.196Z,100.00
2023-04-22T23:12:59.955Z,100.00
2023-04-22T23:15:26.751Z,100.00
2023-04-22T23:17:53.546Z,100.00
2023-04-22T23:20:20.747Z,100.00
2023-04-22T23:22:47.570Z,100.00
2023-04-22T23:25:15.384Z,100.00
2023-04-22T23:27:42.262Z,100.00
2023-04-22T23:30:09.317Z,100.00
2023-04-22T23:32:40.967Z,100.00
2023-04-22T23:35:09.722Z,100.00
2023-04-22T23:37:37.180Z,100.00
2023-04-22T23:40:06.783Z,100.00
2023-04-22T23:42:33.625Z,100.00
2023-04-22T23:45:02.217Z,100.00
2023-04-22T23:47:30.904Z,100.00
2023-04-22T23:49:58.234Z,100.00
2023-04-22T23:52:25.358Z,100.00
2023-04-22T23:54:52.425Z,100.00
2023-04-22T23:57:19.728Z,100.00
2023-04-22T23:59:46.693Z,100.00
